createdAt,value
2018-12-22T00:00:42.336Z,99727.00
2018-12-22T00:03:10.474Z,99723.00
2018-12-22T00:05:38.584Z,99724.00
2018-12-22T00:08:06.630Z,99733.00
2018-12-22T00:10:34.773Z,99738.00
2018-12-22T00:13:02.839Z,99731.00
2018-12-22T00:15:30.915Z,99736.00
2018-12-22T00:17:58.999Z,99736.00
2018-12-22T00:20:27.057Z,99730.00
2018-12-22T00:22:55.086Z,99738.00
2018-12-22T00:25:23.108Z,99738.00
2018-12-22T00:27:51.233Z,99736.00
2018-12-22T00:30:19.443Z,99736.00
2018-12-22T00:32:47.510Z,99745.00
2018-12-22T00:35:15.658Z,99742.00
2018-12-22T00:37:43.690Z,99749.00
2018-12-22T00:40:11.792Z,99753.00
2018-12-22T00:42:39.901Z,99740.00
2018-12-22T00:45:07.886Z,99741.00
2018-12-22T00:47:35.939Z,99760.00
2018-12-22T00:50:05.306Z,99745.00
2018-12-22T00:52:33.393Z,99740.00
2018-12-22T00:55:01.403Z,99754.00
2018-12-22T00:57:29.407Z,99747.00
2018-12-22T00:59:57.422Z,99751.00
2018-12-22T01:02:25.400Z,99760.00
2018-12-22T01:04:53.391Z,99759.00
2018-12-22T01:07:21.452Z,99762.00
2018-12-22T01:09:49.466Z,99757.00
2018-12-22T01:12:17.505Z,99762.00
2018-12-22T01:14:45.544Z,99766.00
2018-12-22T01:17:13.567Z,99771.00
2018-12-22T01:19:41.652Z,99771.00
2018-12-22T01:22:09.758Z,99766.00
2018-12-22T01:24:37.894Z,99772.00
2018-12-22T01:27:06.022Z,99775.00
2018-12-22T01:29:34.038Z,99778.00
2018-12-22T01:32:02.052Z,99787.00
2018-12-22T01:34:30.026Z,99796.00
2018-12-22T01:36:58.049Z,99799.00
2018-12-22T01:39:26.129Z,99797.00
2018-12-22T01:41:54.388Z,99793.00
2018-12-22T01:44:22.410Z,99790.00
2018-12-22T01:46:50.433Z,99782.00
2018-12-22T01:49:18.453Z,99786.00
2018-12-22T01:51:46.436Z,99787.00
2018-12-22T01:54:14.482Z,99788.00
2018-12-22T01:56:42.450Z,99782.00
2018-12-22T01:59:10.414Z,99790.00
2018-12-22T02:01:38.382Z,99791.00
2018-12-22T02:04:06.375Z,99789.00
2018-12-22T02:06:34.510Z,99789.00
2018-12-22T02:09:04.178Z,99774.00
2018-12-22T02:11:32.210Z,99764.00
2018-12-22T02:14:00.186Z,99768.00
2018-12-22T02:16:28.215Z,99779.00
2018-12-22T02:18:56.153Z,99781.00
2018-12-22T02:21:24.253Z,99772.00
2018-12-22T02:23:52.222Z,99774.00
2018-12-22T02:26:20.449Z,99765.00
2018-12-22T02:28:56.391Z,99765.00
2018-12-22T02:31:18.486Z,99773.00
2018-12-22T02:33:46.493Z,99766.00
2018-12-22T02:36:14.437Z,99768.00
2018-12-22T02:38:42.418Z,99788.00
2018-12-22T02:41:10.499Z,99786.00
2018-12-22T02:43:38.487Z,99783.00
2018-12-22T02:46:06.499Z,99780.00
2018-12-22T02:48:34.548Z,99779.00
2018-12-22T02:51:03.193Z,99787.00
2018-12-22T02:53:31.224Z,99775.00
2018-12-22T02:55:59.296Z,99788.00
2018-12-22T02:58:27.318Z,99788.00
2018-12-22T03:00:55.336Z,99788.00
2018-12-22T03:03:23.325Z,99770.00
2018-12-22T03:05:51.341Z,99782.00
2018-12-22T03:08:19.365Z,99776.00
2018-12-22T03:10:47.393Z,99780.00
2018-12-22T03:13:15.365Z,99765.00
2018-12-22T03:15:43.297Z,99769.00
2018-12-22T03:18:11.361Z,99767.00
2018-12-22T03:20:39.540Z,99772.00
2018-12-22T03:23:07.516Z,99755.00
2018-12-22T03:25:35.563Z,99761.00
2018-12-22T03:28:03.548Z,99761.00
2018-12-22T03:30:31.526Z,99761.00
2018-12-22T03:32:59.619Z,99757.00
2018-12-22T03:35:27.770Z,99754.00
2018-12-22T03:37:55.824Z,99760.00
2018-12-22T03:40:24.807Z,99755.00
2018-12-22T03:42:52.762Z,99753.00
2018-12-22T03:45:21.263Z,99754.00
2018-12-22T03:47:49.279Z,99761.00
2018-12-22T03:50:17.334Z,99758.00
2018-12-22T03:52:45.416Z,99733.00
2018-12-22T03:55:13.434Z,99745.00
2018-12-22T03:57:41.405Z,99755.00
2018-12-22T04:00:09.519Z,99745.00
2018-12-22T04:02:37.558Z,99744.00
2018-12-22T04:05:07.051Z,99740.00
2018-12-22T04:07:35.400Z,99747.00
2018-12-22T04:10:04.438Z,99745.00
2018-12-22T04:12:32.440Z,99740.00
2018-12-22T04:15:00.523Z,99739.00
2018-12-22T04:17:28.476Z,99732.00
2018-12-22T04:19:56.488Z,99723.00
2018-12-22T04:22:24.482Z,99723.00
2018-12-22T04:24:54.077Z,99730.00
2018-12-22T04:27:22.087Z,99722.00
2018-12-22T04:29:50.054Z,99716.00
2018-12-22T04:32:18.031Z,99704.00
2018-12-22T04:34:46.080Z,99723.00
2018-12-22T04:37:14.059Z,99686.00
2018-12-22T04:39:42.015Z,99719.00
2018-12-22T04:42:10.015Z,99728.00
2018-12-22T04:44:38.153Z,99741.00
2018-12-22T04:47:06.124Z,99754.00
2018-12-22T04:49:34.221Z,99748.00
2018-12-22T04:52:02.373Z,99727.00
2018-12-22T04:54:30.343Z,99736.00
2018-12-22T04:56:58.353Z,99725.00
2018-12-22T04:59:26.305Z,99721.00
2018-12-22T05:01:54.410Z,99711.00
2018-12-22T05:04:23.132Z,99722.00
2018-12-22T05:06:51.110Z,99725.00
2018-12-22T05:09:19.162Z,99728.00
2018-12-22T05:11:47.878Z,99724.00
2018-12-22T05:14:15.890Z,99727.00
2018-12-22T05:16:44.031Z,99718.00
2018-12-22T05:19:11.997Z,99727.00
2018-12-22T05:21:40.174Z,99720.00
2018-12-22T05:24:08.185Z,99721.00
2018-12-22T05:26:36.293Z,99733.00
2018-12-22T05:29:04.260Z,99733.00
2018-12-22T05:31:32.234Z,99730.00
2018-12-22T05:34:00.206Z,99729.00
2018-12-22T05:36:28.171Z,99725.00
2018-12-22T05:38:56.148Z,99723.00
2018-12-22T05:41:24.698Z,99732.00
2018-12-22T05:43:52.707Z,99743.00
2018-12-22T05:46:20.942Z,99746.00
2018-12-22T05:48:48.890Z,99729.00
2018-12-22T05:51:17.011Z,99740.00
2018-12-22T05:53:45.063Z,99731.00
2018-12-22T05:56:13.007Z,99733.00
2018-12-22T05:58:41.325Z,99740.00
2018-12-22T06:01:09.657Z,99745.00
2018-12-22T06:03:37.638Z,99744.00
2018-12-22T06:06:06.226Z,99741.00
2018-12-22T06:08:34.432Z,99751.00
2018-12-22T06:11:02.417Z,99743.00
2018-12-22T06:13:30.475Z,99740.00
2018-12-22T06:15:58.456Z,99745.00
2018-12-22T06:18:26.494Z,99745.00
2018-12-22T06:20:54.654Z,99750.00
2018-12-22T06:23:22.740Z,99736.00
2018-12-22T06:25:50.726Z,99744.00
2018-12-22T06:28:18.670Z,99732.00
2018-12-22T06:30:46.676Z,99754.00
2018-12-22T06:33:14.795Z,99756.00
2018-12-22T06:35:42.845Z,99767.00
2018-12-22T06:38:10.848Z,99763.00
2018-12-22T06:40:38.859Z,99760.00
2018-12-22T06:43:06.851Z,99746.00
2018-12-22T06:45:34.875Z,99758.00
2018-12-22T06:48:02.968Z,99724.00
2018-12-22T06:50:30.932Z,99763.00
2018-12-22T06:52:58.909Z,99763.00
2018-12-22T06:55:26.963Z,99772.00
2018-12-22T06:57:55.004Z,99781.00
2018-12-22T07:00:23.207Z,99765.00
2018-12-22T07:02:51.303Z,99790.00
2018-12-22T07:05:19.315Z,99788.00
2018-12-22T07:07:47.457Z,99777.00
2018-12-22T07:10:15.468Z,99650.00
2018-12-22T07:12:43.462Z,99792.00
2018-12-22T07:15:11.462Z,99792.00
2018-12-22T07:17:39.424Z,99797.00
2018-12-22T07:20:07.422Z,99811.00
2018-12-22T07:22:35.436Z,99823.00
2018-12-22T07:25:03.718Z,99822.00
2018-12-22T07:27:31.672Z,99822.00
2018-12-22T07:29:59.677Z,99818.00
2018-12-22T07:32:27.677Z,99821.00
2018-12-22T07:34:55.904Z,99823.00
2018-12-22T07:37:24.076Z,99838.00
2018-12-22T07:39:52.526Z,99832.00
2018-12-22T07:42:20.531Z,99834.00
2018-12-22T07:44:48.501Z,99829.00
2018-12-22T07:47:16.599Z,99842.00
2018-12-22T07:49:44.658Z,99831.00
2018-12-22T07:52:12.763Z,99835.00
2018-12-22T07:54:41.070Z,99837.00
2018-12-22T07:57:09.127Z,99853.00
2018-12-22T07:59:37.142Z,99852.00
2018-12-22T08:02:05.215Z,99856.00
2018-12-22T08:04:33.271Z,99866.00
2018-12-22T08:07:01.366Z,99882.00
2018-12-22T08:09:29.400Z,99885.00
2018-12-22T08:11:57.492Z,99870.00
2018-12-22T08:14:25.622Z,99895.00
2018-12-22T08:16:53.876Z,99943.00
2018-12-22T08:19:21.908Z,99907.00
2018-12-22T08:21:49.927Z,99896.00
2018-12-22T08:24:18.050Z,99909.00
2018-12-22T08:26:46.168Z,99913.00
2018-12-22T08:29:14.210Z,99923.00
2018-12-22T08:31:42.261Z,99920.00
2018-12-22T08:34:10.325Z,99913.00
2018-12-22T08:36:38.869Z,99954.00
2018-12-22T08:39:07.281Z,99962.00
2018-12-22T08:41:35.393Z,99942.00
2018-12-22T08:44:03.881Z,99968.00
2018-12-22T08:46:31.945Z,99971.00
2018-12-22T08:49:00.095Z,99976.00
2018-12-22T08:51:28.163Z,99980.00
2018-12-22T08:53:56.232Z,99979.00
2018-12-22T08:56:24.288Z,99986.00
2018-12-22T08:58:52.468Z,100000.00
2018-12-22T09:01:20.622Z,100004.00
2018-12-22T09:03:48.657Z,100015.00
2018-12-22T09:06:16.871Z,100021.00
2018-12-22T09:08:44.910Z,100024.00
2018-12-22T09:11:12.954Z,100026.00
2018-12-22T09:13:41.163Z,100055.00
2018-12-22T09:16:09.215Z,100063.00
2018-12-22T09:18:37.407Z,100052.00
2018-12-22T09:21:05.449Z,100057.00
2018-12-22T09:23:33.555Z,100077.00
2018-12-22T09:26:01.640Z,100081.00
2018-12-22T09:28:29.769Z,100088.00
2018-12-22T09:31:00.950Z,100111.00
2018-12-22T09:33:27.955Z,100113.00
2018-12-22T09:35:56.008Z,100116.00
2018-12-22T09:38:24.075Z,100127.00
2018-12-22T09:40:52.428Z,100149.00
2018-12-22T09:43:20.614Z,100183.00
2018-12-22T09:45:48.668Z,100209.00
2018-12-22T09:48:16.834Z,100181.00
2018-12-22T09:50:44.973Z,100200.00
2018-12-22T09:53:13.099Z,100192.00
2018-12-22T09:55:41.315Z,100209.00
2018-12-22T09:58:09.432Z,100206.00
2018-12-22T10:00:37.588Z,100203.00
2018-12-22T10:03:05.789Z,100194.00
2018-12-22T10:05:38.973Z,100202.00
2018-12-22T10:08:07.242Z,100213.00
2018-12-22T10:10:35.442Z,100220.00
2018-12-22T10:13:03.861Z,100214.00
2018-12-22T10:15:31.888Z,100217.00
2018-12-22T10:18:00.109Z,100234.00
2018-12-22T10:20:28.329Z,100217.00
2018-12-22T10:22:56.508Z,100219.00
2018-12-22T10:25:24.554Z,100235.00
2018-12-22T10:27:52.586Z,100221.00
2018-12-22T10:30:20.763Z,100218.00
2018-12-22T10:32:48.945Z,100219.00
2018-12-22T10:35:33.936Z,100221.00
2018-12-22T10:38:02.009Z,100228.00
2018-12-22T10:40:30.226Z,100231.00
2018-12-22T10:42:58.483Z,100225.00
2018-12-22T10:45:26.699Z,100231.00
2018-12-22T10:47:54.704Z,100232.00
2018-12-22T10:50:22.888Z,100243.00
2018-12-22T10:52:50.973Z,100235.00
2018-12-22T10:55:19.073Z,100235.00
2018-12-22T10:57:47.159Z,100235.00
2018-12-22T11:00:19.416Z,100241.00
2018-12-22T11:02:47.529Z,100242.00
2018-12-22T11:05:16.921Z,100240.00
2018-12-22T11:07:46.024Z,100237.00
2018-12-22T11:10:21.300Z,100240.00
2018-12-22T11:12:51.184Z,100242.00
2018-12-22T11:15:19.323Z,100247.00
2018-12-22T11:17:47.506Z,100256.00
2018-12-22T11:20:15.666Z,100253.00
2018-12-22T11:22:43.814Z,100239.00
2018-12-22T11:25:23.654Z,100244.00
2018-12-22T11:27:51.753Z,100245.00
2018-12-22T11:30:29.094Z,100247.00
2018-12-22T11:32:57.246Z,100245.00
2018-12-22T11:35:25.406Z,100240.00
2018-12-22T11:37:53.511Z,100244.00
2018-12-22T11:40:21.639Z,100239.00
2018-12-22T11:42:49.802Z,100235.00
2018-12-22T11:45:18.018Z,100238.00
2018-12-22T11:48:07.140Z,100210.00
2018-12-22T11:50:35.219Z,100253.00
2018-12-22T11:53:03.404Z,100262.00
2018-12-22T11:55:31.634Z,100256.00
2018-12-22T11:57:59.896Z,100272.00
2018-12-22T12:00:28.105Z,100258.00
2018-12-22T12:02:56.207Z,100260.00
2018-12-22T12:05:24.376Z,100273.00
2018-12-22T12:07:52.532Z,100298.00
2018-12-22T12:10:20.730Z,100319.00
2018-12-22T12:12:48.953Z,100295.00
2018-12-22T12:15:22.633Z,100318.00
2018-12-22T12:18:40.407Z,100325.00
2018-12-22T12:21:08.687Z,100316.00
2018-12-22T12:23:36.851Z,100310.00
2018-12-22T12:26:04.965Z,100316.00
2018-12-22T12:28:33.224Z,100309.00
2018-12-22T12:31:01.461Z,100319.00
2018-12-22T12:33:29.689Z,100326.00
2018-12-22T12:35:57.876Z,100332.00
2018-12-22T12:38:26.094Z,100326.00
2018-12-22T12:40:54.320Z,100330.00
2018-12-22T12:43:22.426Z,100336.00
2018-12-22T12:45:50.673Z,100341.00
2018-12-22T12:48:22.422Z,100342.00
2018-12-22T12:50:50.830Z,100346.00
2018-12-22T12:53:19.023Z,100351.00
2018-12-22T12:55:47.332Z,100348.00
2018-12-22T12:58:15.543Z,100360.00
2018-12-22T13:00:43.693Z,100362.00
2018-12-22T13:03:11.852Z,100354.00
2018-12-22T13:05:40.131Z,100363.00
2018-12-22T13:08:08.387Z,100367.00
2018-12-22T13:10:36.847Z,100372.00
2018-12-22T13:14:22.619Z,100377.00
2018-12-22T13:16:51.237Z,100384.00
2018-12-22T13:19:19.353Z,100379.00
2018-12-22T13:21:52.047Z,100386.00
2018-12-22T13:24:20.262Z,100382.00
2018-12-22T13:26:49.137Z,100397.00
2018-12-22T13:29:17.395Z,100403.00
2018-12-22T13:31:46.267Z,100400.00
2018-12-22T13:34:14.549Z,100406.00
2018-12-22T13:36:42.849Z,100396.00
2018-12-22T13:39:18.885Z,100406.00
2018-12-22T13:41:47.047Z,100409.00
2018-12-22T13:44:15.505Z,100417.00
2018-12-22T13:46:43.645Z,100402.00
2018-12-22T13:49:12.093Z,100413.00
2018-12-22T13:51:43.239Z,100418.00
2018-12-22T13:54:12.687Z,100410.00
2018-12-22T13:56:41.291Z,100418.00
2018-12-22T13:59:09.394Z,100413.00
2018-12-22T14:01:43.621Z,100416.00
2018-12-22T14:04:11.930Z,100422.00
2018-12-22T14:06:43.748Z,100421.00
2018-12-22T14:09:12.563Z,100427.00
2018-12-22T14:11:42.145Z,100422.00
2018-12-22T14:14:18.418Z,100430.00
2018-12-22T14:20:13.555Z,100441.00
2018-12-22T14:22:42.117Z,100431.00
2018-12-22T14:25:21.453Z,100450.00
2018-12-22T14:27:49.691Z,100438.00
2018-12-22T14:30:17.888Z,100452.00
2018-12-22T14:32:47.615Z,100442.00
2018-12-22T14:35:33.603Z,100457.00
2018-12-22T14:38:01.753Z,100461.00
2018-12-22T14:40:29.957Z,100462.00
2018-12-22T14:42:58.061Z,100471.00
2018-12-22T14:45:26.389Z,100474.00
2018-12-22T14:47:54.574Z,100468.00
2018-12-22T14:50:22.826Z,100475.00
2018-12-22T14:52:51.023Z,100471.00
2018-12-22T14:55:19.326Z,100476.00
2018-12-22T14:57:53.427Z,100474.00
2018-12-22T15:00:21.706Z,100470.00
2018-12-22T15:02:50.148Z,100488.00
2018-12-22T15:05:18.589Z,100488.00
2018-12-22T15:07:47.390Z,100481.00
2018-12-22T15:10:15.642Z,100495.00
2018-12-22T15:12:43.719Z,100487.00
2018-12-22T15:15:12.014Z,100488.00
2018-12-22T15:17:40.511Z,100495.00
2018-12-22T15:20:14.180Z,100505.00
2018-12-22T15:22:42.340Z,100510.00
2018-12-22T15:25:10.652Z,100514.00
2018-12-22T15:27:38.800Z,100513.00
2018-12-22T15:30:12.787Z,100517.00
2018-12-22T15:32:44.501Z,100524.00
2018-12-22T15:35:11.239Z,100523.00
2018-12-22T15:37:39.350Z,100519.00
2018-12-22T15:40:08.430Z,100523.00
2018-12-22T15:42:36.620Z,100549.00
2018-12-22T15:45:09.663Z,100534.00
2018-12-22T15:47:37.803Z,100541.00
2018-12-22T15:50:11.475Z,100527.00
2018-12-22T15:52:39.607Z,100529.00
2018-12-22T15:55:08.303Z,100537.00
2018-12-22T15:57:36.627Z,100540.00
2018-12-22T16:00:07.639Z,100533.00
2018-12-22T16:02:35.705Z,100547.00
2018-12-22T16:05:04.533Z,100551.00
2018-12-22T16:07:32.672Z,100555.00
2018-12-22T16:10:00.784Z,100557.00
2018-12-22T16:12:29.114Z,100560.00
2018-12-22T16:14:57.174Z,100564.00
2018-12-22T16:17:25.339Z,100565.00
2018-12-22T16:19:53.498Z,100574.00
2018-12-22T16:22:21.542Z,100571.00
2018-12-22T16:24:49.779Z,100580.00
2018-12-22T16:27:17.940Z,100566.00
2018-12-22T16:29:46.544Z,100566.00
2018-12-22T16:32:14.698Z,100567.00
2018-12-22T16:34:42.832Z,100570.00
2018-12-22T16:37:11.137Z,100581.00
2018-12-22T16:39:39.552Z,100588.00
2018-12-22T16:42:07.879Z,100590.00
2018-12-22T16:44:36.196Z,100583.00
2018-12-22T16:47:04.450Z,100588.00
2018-12-22T16:49:32.910Z,100597.00
2018-12-22T16:52:01.263Z,100591.00
2018-12-22T16:54:29.355Z,100600.00
2018-12-22T16:56:57.417Z,100600.00
2018-12-22T16:59:31.705Z,100605.00
2018-12-22T17:02:10.930Z,100608.00
2018-12-22T17:04:39.014Z,100606.00
2018-12-22T17:07:07.353Z,100614.00
2018-12-22T17:09:35.560Z,100618.00
2018-12-22T17:12:03.879Z,100621.00
2018-12-22T17:14:32.093Z,100627.00
2018-12-22T17:17:00.482Z,100625.00
2018-12-22T17:19:28.673Z,100629.00
2018-12-22T17:22:57.082Z,100624.00
2018-12-22T17:25:40.581Z,100632.00
2018-12-22T17:28:08.870Z,100622.00
2018-12-22T17:30:37.125Z,100634.00
2018-12-22T17:33:05.345Z,100637.00
2018-12-22T17:35:35.435Z,100635.00
2018-12-22T17:38:03.797Z,100631.00
2018-12-22T17:40:32.047Z,100640.00
2018-12-22T17:43:00.257Z,100650.00
2018-12-22T17:45:28.674Z,100658.00
2018-12-22T17:47:56.938Z,100652.00
2018-12-22T17:50:25.250Z,100655.00
2018-12-22T17:52:53.737Z,100662.00
2018-12-22T17:55:21.947Z,100669.00
2018-12-22T17:57:50.218Z,100670.00
2018-12-22T18:00:20.321Z,100670.00
2018-12-22T18:02:48.893Z,100664.00
2018-12-22T18:05:17.236Z,100664.00
2018-12-22T18:07:45.832Z,100681.00
2018-12-22T18:10:14.218Z,100682.00
2018-12-22T18:12:42.722Z,100685.00
2018-12-22T18:15:14.907Z,100696.00
2018-12-22T18:17:43.193Z,100694.00
2018-12-22T18:20:11.455Z,100697.00
2018-12-22T18:22:39.745Z,100703.00
2018-12-22T18:25:10.789Z,100701.00
2018-12-22T18:27:39.027Z,100718.00
2018-12-22T18:30:11.353Z,100724.00
2018-12-22T18:32:40.275Z,100716.00
2018-12-22T18:35:09.945Z,100726.00
2018-12-22T18:37:38.252Z,100725.00
2018-12-22T18:40:12.763Z,100718.00
2018-12-22T18:42:41.407Z,100723.00
2018-12-22T18:45:11.457Z,100729.00
2018-12-22T18:47:40.943Z,100728.00
2018-12-22T18:50:15.203Z,100733.00
2018-12-22T18:52:43.868Z,100743.00
2018-12-22T18:55:12.226Z,100744.00
2018-12-22T18:57:40.948Z,100739.00
2018-12-22T19:00:17.849Z,100739.00
2018-12-22T19:02:48.094Z,100741.00
2018-12-22T19:05:17.715Z,100747.00
2018-12-22T19:07:47.484Z,100742.00
2018-12-22T19:10:25.871Z,100737.00
2018-12-22T19:12:56.122Z,100740.00
2018-12-22T19:15:25.035Z,100733.00
2018-12-22T19:17:54.166Z,100748.00
2018-12-22T19:20:32.994Z,100758.00
2018-12-22T19:23:02.015Z,100754.00
2018-12-22T19:25:30.302Z,100759.00
2018-12-22T19:27:58.473Z,100762.00
2018-12-22T19:30:26.810Z,100777.00
2018-12-22T19:32:55.189Z,100770.00
2018-12-22T19:35:23.661Z,100765.00
2018-12-22T19:37:52.003Z,100762.00
2018-12-22T19:40:20.181Z,100760.00
2018-12-22T19:42:48.538Z,100762.00
2018-12-22T19:45:16.840Z,100764.00
2018-12-22T19:47:45.019Z,100777.00
2018-12-22T19:50:13.157Z,100766.00
2018-12-22T19:52:41.531Z,100771.00
2018-12-22T19:55:09.856Z,100768.00
2018-12-22T19:57:38.077Z,100782.00
2018-12-22T20:00:06.673Z,100786.00
2018-12-22T20:02:35.724Z,100791.00
2018-12-22T20:05:05.005Z,100790.00
2018-12-22T20:07:33.334Z,100796.00
2018-12-22T20:10:01.737Z,100808.00
2018-12-22T20:12:30.023Z,100812.00
2018-12-22T20:14:58.457Z,100809.00
2018-12-22T20:17:26.824Z,100798.00
2018-12-22T20:19:55.177Z,100804.00
2018-12-22T20:22:23.575Z,100804.00
2018-12-22T20:24:51.855Z,100812.00
2018-12-22T20:27:20.090Z,100814.00
2018-12-22T20:29:48.362Z,100813.00
2018-12-22T20:32:16.726Z,100812.00
2018-12-22T20:34:45.622Z,100811.00
2018-12-22T20:37:13.948Z,100824.00
2018-12-22T20:39:42.068Z,100815.00
2018-12-22T20:42:10.291Z,100814.00
2018-12-22T20:44:38.565Z,100813.00
2018-12-22T20:47:07.005Z,100819.00
2018-12-22T20:49:35.201Z,100827.00
2018-12-22T20:52:03.626Z,100830.00
2018-12-22T20:54:31.850Z,100833.00
2018-12-22T20:57:00.193Z,100832.00
2018-12-22T20:59:28.500Z,100820.00
2018-12-22T21:01:56.786Z,100831.00
2018-12-22T21:04:25.714Z,100830.00
2018-12-22T21:06:54.063Z,100847.00
2018-12-22T21:09:22.415Z,100847.00
2018-12-22T21:11:50.820Z,100848.00
2018-12-22T21:14:18.982Z,100852.00
2018-12-22T21:16:47.296Z,100849.00
2018-12-22T21:19:15.590Z,100852.00
2018-12-22T21:21:43.887Z,100854.00
2018-12-22T21:24:12.299Z,100859.00
2018-12-22T21:26:40.648Z,100857.00
2018-12-22T21:29:08.928Z,100868.00
2018-12-22T21:31:37.509Z,100861.00
2018-12-22T21:34:05.800Z,100866.00
2018-12-22T21:36:34.080Z,100869.00
2018-12-22T21:39:04.814Z,100870.00
2018-12-22T21:41:33.148Z,100870.00
2018-12-22T21:44:01.552Z,100869.00
2018-12-22T21:46:29.865Z,100864.00
2018-12-22T21:48:58.563Z,100876.00
2018-12-22T21:51:27.204Z,100890.00
2018-12-22T21:53:56.237Z,100877.00
2018-12-22T21:56:24.808Z,100883.00
2018-12-22T21:58:53.212Z,100886.00
2018-12-22T22:01:21.662Z,100888.00
2018-12-22T22:03:50.017Z,100886.00
2018-12-22T22:06:18.328Z,100890.00
2018-12-22T22:08:46.701Z,100902.00
2018-12-22T22:11:15.066Z,100901.00
2018-12-22T22:13:43.579Z,100911.00
2018-12-22T22:16:12.312Z,100925.00
2018-12-22T22:18:40.703Z,100919.00
2018-12-22T22:21:09.152Z,100915.00
2018-12-22T22:23:37.457Z,100930.00
2018-12-22T22:26:05.888Z,100924.00
2018-12-22T22:28:34.329Z,100923.00
2018-12-22T22:33:54.311Z,100928.00
2018-12-22T22:36:22.629Z,100937.00
2018-12-22T22:38:51.081Z,100930.00
2018-12-22T22:41:19.352Z,100937.00
2018-12-22T22:43:47.704Z,100940.00
2018-12-22T22:46:15.873Z,100945.00
2018-12-22T22:48:44.277Z,100943.00
2018-12-22T22:51:12.450Z,100955.00
2018-12-22T22:53:40.701Z,100962.00
2018-12-22T22:56:09.002Z,100957.00
2018-12-22T22:58:37.328Z,100968.00
2018-12-22T23:01:05.745Z,100973.00
2018-12-22T23:03:33.884Z,100969.00
2018-12-22T23:06:02.020Z,100969.00
2018-12-22T23:08:30.319Z,100969.00
2018-12-22T23:10:58.615Z,100981.00
2018-12-22T23:13:26.865Z,100978.00
2018-12-22T23:15:55.225Z,100980.00
2018-12-22T23:18:23.553Z,100983.00
2018-12-22T23:20:52.052Z,100985.00
2018-12-22T23:23:20.312Z,100994.00
2018-12-22T23:25:55.314Z,100992.00
2018-12-22T23:28:23.546Z,100994.00
2018-12-22T23:30:51.691Z,100993.00
2018-12-22T23:33:19.891Z,100999.00
2018-12-22T23:35:48.444Z,101000.00
2018-12-22T23:38:16.726Z,101002.00
2018-12-22T23:40:45.581Z,100997.00
2018-12-22T23:43:13.745Z,101002.00
2018-12-22T23:45:41.956Z,101000.00
2018-12-22T23:48:10.188Z,101008.00
2018-12-22T23:50:38.318Z,101001.00
2018-12-22T23:53:06.428Z,100991.00
2018-12-22T23:55:34.536Z,100991.00
2018-12-22T23:58:02.588Z,100997.00
